Time;durP1;ratioP1;P1;durP2;ratioP2;P2;SDS_P1;SDS_P2;PMS_P1;PMS_P2;Temp;Humidity;BMP_temperature;BMP_pressure;BME280_temperature;BME280_humidity;BME280_pressure;Samples;Min_cycle;Max_cycle;Signal;HPM_P1;HPM_P2
2021/07/06 00:03:26;;;;;;;19.70;14.90;;;;;;;17.30;100.00;94366.66;10446024;28;20126;-75
2021/07/06 00:08:27;;;;;;;21.17;14.53;;;;;;;17.43;100.00;94375.75;10446123;28;20025;-75
2021/07/06 00:13:27;;;;;;;17.23;13.30;;;;;;;17.52;100.00;94384.66;10446841;28;20132;-75
2021/07/06 00:18:27;;;;;;;23.17;13.55;;;;;;;17.55;100.00;94389.44;10446633;28;20021;-75
2021/07/06 00:23:29;;;;;;;19.13;13.57;;;;;;;17.53;100.00;94380.81;10446022;28;20894;-76
2021/07/06 00:28:29;;;;;;;21.77;14.35;;;;;;;17.51;100.00;94388.50;10446642;28;20287;-75
2021/07/06 00:33:30;;;;;;;19.33;14.07;;;;;;;17.51;100.00;94396.66;10445490;28;20052;-75
2021/07/06 00:38:31;;;;;;;21.90;15.38;;;;;;;17.53;100.00;94397.13;10445968;28;20095;-75
2021/07/06 00:43:36;;;;;;;20.50;13.82;;;;;;;17.56;100.00;94401.09;10446678;28;20032;-76
2021/07/06 00:48:36;;;;;;;21.27;15.05;;;;;;;17.48;100.00;94401.94;10446480;28;20060;-75
2021/07/06 00:53:37;;;;;;;24.52;14.93;;;;;;;17.30;100.00;94399.25;10446003;28;20111;-75
2021/07/06 00:58:38;;;;;;;21.60;14.60;;;;;;;17.27;100.00;94397.19;10445265;28;20024;-76
2021/07/06 01:03:38;;;;;;;21.75;14.45;;;;;;;17.17;100.00;94394.84;10446208;28;20117;-75
2021/07/06 01:08:38;;;;;;;24.27;15.27;;;;;;;17.22;100.00;94398.19;10445466;28;20083;-75
2021/07/06 01:13:39;;;;;;;21.70;14.55;;;;;;;17.28;100.00;94403.44;10440772;28;20031;-75
2021/07/06 01:18:39;;;;;;;24.73;13.88;;;;;;;17.26;100.00;94414.59;10445113;28;20017;-74
2021/07/06 01:23:40;;;;;;;17.10;12.38;;;;;;;17.18;100.00;94397.22;10444451;28;20021;-75
2021/07/06 01:28:42;;;;;;;15.05;11.27;;;;;;;17.06;100.00;94392.44;10445475;28;20025;-75
2021/07/06 01:33:42;;;;;;;19.95;11.63;;;;;;;17.08;100.00;94400.28;10446616;28;20060;-74
2021/07/06 01:38:42;;;;;;;17.17;11.63;;;;;;;17.03;100.00;94403.16;10452130;28;20468;-75
2021/07/06 01:43:46;;;;;;;14.10;11.13;;;;;;;16.92;100.00;94394.56;10452899;28;20446;-75
2021/07/06 01:48:46;;;;;;;13.85;11.43;;;;;;;16.88;100.00;94391.69;10452536;28;20075;-75
2021/07/06 01:53:46;;;;;;;23.60;11.93;;;;;;;16.71;100.00;94383.53;10453181;28;20743;-75
2021/07/06 01:58:47;;;;;;;20.60;11.87;;;;;;;16.72;100.00;94390.56;10451235;28;20467;-74
2021/07/06 02:03:51;;;;;;;18.60;12.70;;;;;;;16.60;100.00;94393.91;10451930;28;20523;-74
2021/07/06 02:08:51;;;;;;;16.95;13.48;;;;;;;16.53;100.00;94388.16;10451822;28;20295;-74
2021/07/06 02:13:54;;;;;;;18.70;12.50;;;;;;;16.44;100.00;94399.03;10450775;28;20495;-74
2021/07/06 02:18:54;;;;;;;22.52;13.95;;;;;;;16.30;100.00;94399.16;10450918;28;20086;-75
2021/07/06 02:23:55;;;;;;;25.65;14.35;;;;;;;16.30;100.00;94411.91;10451221;28;20538;-75
2021/07/06 02:28:55;;;;;;;25.27;12.23;;;;;;;16.42;100.00;94405.88;10450926;28;20021;-75
2021/07/06 02:33:55;;;;;;;20.80;14.07;;;;;;;16.44;100.00;94414.47;10451008;28;20777;-75
2021/07/06 02:38:56;;;;;;;18.30;13.13;;;;;;;16.50;100.00;94419.44;10451040;28;20037;-75
2021/07/06 02:43:56;;;;;;;22.70;11.07;;;;;;;16.48;100.00;94424.41;10450021;28;20033;-75
2021/07/06 02:48:57;;;;;;;15.23;10.40;;;;;;;16.34;100.00;94421.00;10450695;28;20017;-75
2021/07/06 02:53:57;;;;;;;18.13;10.37;;;;;;;16.36;100.00;94422.31;10450550;28;20033;-75
2021/07/06 02:58:58;;;;;;;16.20;10.50;;;;;;;16.21;100.00;94422.75;10450028;28;20481;-75
2021/07/06 03:03:59;;;;;;;13.98;11.00;;;;;;;16.10;100.00;94426.88;10450002;28;20107;-75
2021/07/06 03:09:00;;;;;;;15.77;11.77;;;;;;;16.08;100.00;94431.84;10449693;28;20037;-75
2021/07/06 03:14:00;;;;;;;22.77;13.25;;;;;;;16.10;100.00;94441.22;10449537;28;20028;-75
2021/07/06 03:19:00;;;;;;;19.20;12.57;;;;;;;16.25;100.00;94441.91;10449448;28;20021;-75
2021/07/06 03:24:01;;;;;;;18.57;12.97;;;;;;;16.29;100.00;94448.31;10449321;28;20087;-75
2021/07/06 03:29:01;;;;;;;17.67;13.73;;;;;;;16.28;100.00;94463.75;10448799;28;20064;-75
2021/07/06 03:34:02;;;;;;;21.37;15.03;;;;;;;16.28;100.00;94460.25;10448879;28;20063;-75
2021/07/06 03:39:02;;;;;;;21.23;14.82;;;;;;;16.46;100.00;94466.50;10448879;28;20301;-75
2021/07/06 03:44:02;;;;;;;27.10;13.53;;;;;;;16.58;100.00;94462.06;10448864;28;20188;-76
2021/07/06 03:49:03;;;;;;;21.30;13.23;;;;;;;16.80;100.00;94467.66;10447544;28;20032;-75
2021/07/06 03:54:03;;;;;;;17.52;12.98;;;;;;;16.96;100.00;94465.31;10445966;28;20032;-75
2021/07/06 03:59:04;;;;;;;17.87;12.03;;;;;;;17.17;100.00;94458.09;10444752;28;20033;-74
2021/07/06 04:04:04;;;;;;;16.40;11.63;;;;;;;17.30;100.00;94463.66;10445713;28;20033;-75
2021/07/06 04:09:05;;;;;;;22.25;12.93;;;;;;;17.47;100.00;94471.78;10445586;28;20056;-76
2021/07/06 04:14:06;;;;;;;25.42;13.25;;;;;;;17.72;100.00;94474.72;10446453;28;20099;-76
2021/07/06 04:19:06;;;;;;;22.52;11.13;;;;;;;17.98;100.00;94476.59;10445915;28;20128;-76
2021/07/06 04:24:06;;;;;;;17.27;11.05;;;;;;;18.34;100.00;94475.31;10443713;28;20476;-76
2021/07/06 04:29:07;;;;;;;19.23;10.27;;;;;;;18.85;100.00;94476.09;10444662;28;20044;-76
2021/07/06 04:34:07;;;;;;;15.93;8.93;;;;;;;19.48;100.00;94475.25;10443902;28;20053;-76
2021/07/06 04:39:08;;;;;;;13.68;7.47;;;;;;;20.03;100.00;94475.94;10446603;28;20044;-76
2021/07/06 04:44:08;;;;;;;11.57;7.70;;;;;;;20.52;100.00;94486.06;10446076;28;20043;-76
2021/07/06 04:49:09;;;;;;;22.73;9.13;;;;;;;20.96;100.00;94488.97;10445753;28;20044;-76
2021/07/06 04:54:09;;;;;;;12.98;7.72;;;;;;;21.38;100.00;94490.56;10445189;28;20149;-76
2021/07/06 04:59:10;;;;;;;16.88;7.50;;;;;;;21.77;100.00;94495.50;10445464;28;20021;-77
2021/07/06 05:04:11;;;;;;;17.10;8.30;;;;;;;22.33;100.00;94506.34;10445340;28;20028;-76
2021/07/06 05:09:12;;;;;;;9.95;7.97;;;;;;;22.89;100.00;94509.22;10444433;28;20126;-76
2021/07/06 05:14:12;;;;;;;13.90;7.07;;;;;;;23.12;100.00;94506.59;10444807;28;20504;-76
2021/07/06 05:19:13;;;;;;;16.17;7.53;;;;;;;23.66;100.00;94513.94;10445151;28;20040;-76
2021/07/06 05:24:13;;;;;;;17.63;7.47;;;;;;;24.26;100.00;94515.44;10443431;28;20024;-76
2021/07/06 05:29:14;;;;;;;10.87;6.37;;;;;;;24.66;100.00;94519.66;10444313;28;20025;-76
2021/07/06 05:34:15;;;;;;;17.75;7.25;;;;;;;24.79;100.00;94517.50;10444347;28;20323;-76
2021/07/06 05:39:15;;;;;;;10.30;7.33;;;;;;;25.61;100.00;94518.97;10444841;28;20467;-76
2021/07/06 05:44:16;;;;;;;12.38;6.05;;;;;;;25.91;99.32;94517.00;10444671;28;20036;-76
2021/07/06 05:49:17;;;;;;;11.48;7.18;;;;;;;26.28;97.90;94515.41;10444270;28;20479;-76
2021/07/06 05:54:17;;;;;;;10.63;6.83;;;;;;;26.82;95.16;94520.56;10444302;28;20024;-76
2021/07/06 05:59:17;;;;;;;11.43;6.83;;;;;;;26.85;93.42;94520.63;10443861;28;20024;-76
2021/07/06 06:04:18;;;;;;;9.77;5.97;;;;;;;27.37;85.05;94522.53;10444006;28;20059;-76
2021/07/06 06:09:18;;;;;;;11.93;6.13;;;;;;;28.01;80.54;94510.16;10443771;28;20291;-76
2021/07/06 06:14:19;;;;;;;15.75;6.72;;;;;;;28.17;77.22;94507.81;10444003;28;20033;-76
2021/07/06 06:19:20;;;;;;;10.10;5.90;;;;;;;28.71;74.02;94513.41;10444621;28;20021;-76
2021/07/06 06:24:20;;;;;;;9.27;5.47;;;;;;;29.24;71.59;94511.00;10452427;28;20029;-76
2021/07/06 06:29:20;;;;;;;16.10;6.67;;;;;;;29.59;66.76;94498.22;10452044;28;20079;-76
2021/07/06 06:34:21;;;;;;;13.17;5.63;;;;;;;29.82;62.05;94500.47;10451976;28;20507;-76
2021/07/06 06:39:23;;;;;;;9.27;5.70;;;;;;;30.61;57.56;94500.00;10452184;28;20036;-77
2021/07/06 06:44:23;;;;;;;15.45;5.70;;;;;;;31.11;57.74;94496.00;10448378;28;20071;-76
2021/07/06 06:49:24;;;;;;;9.10;4.80;;;;;;;30.19;55.76;94492.78;10449462;28;20397;-77
2021/07/06 06:54:24;;;;;;;11.03;5.07;;;;;;;31.14;54.55;94500.72;10451274;28;20029;-76
2021/07/06 06:59:24;;;;;;;9.90;5.33;;;;;;;31.57;51.85;94495.91;10450712;28;20488;-76
2021/07/06 07:04:25;;;;;;;5.10;4.40;;;;;;;30.60;49.62;94494.88;10449515;28;20104;-76
2021/07/06 07:09:25;;;;;;;9.00;5.23;;;;;;;30.10;55.36;94507.06;10449731;28;20029;-76
2021/07/06 07:14:25;;;;;;;11.17;4.97;;;;;;;29.88;56.84;94493.34;10450271;28;20500;-76
2021/07/06 07:19:26;;;;;;;8.87;4.43;;;;;;;32.09;46.62;94487.31;10450323;28;20025;-76
2021/07/06 07:24:26;;;;;;;9.52;4.68;;;;;;;34.05;42.99;94491.84;10450409;28;20039;-76
2021/07/06 07:29:27;;;;;;;9.87;4.77;;;;;;;34.92;40.34;94496.22;10449604;28;20039;-75
2021/07/06 07:34:27;;;;;;;15.13;4.30;;;;;;;35.37;37.07;94482.72;10448361;28;20047;-75
2021/07/06 07:39:28;;;;;;;7.45;3.75;;;;;;;36.06;36.34;94473.97;10449272;28;20032;-75
2021/07/06 07:44:28;;;;;;;5.70;3.80;;;;;;;36.23;36.38;94480.25;10447880;28;20854;-79
2021/07/06 07:49:29;;;;;;;9.43;3.73;;;;;;;36.32;35.28;94484.41;10447838;28;20386;-79
2021/07/06 07:54:29;;;;;;;7.70;3.40;;;;;;;37.18;34.35;94484.41;10448444;28;20033;-76
2021/07/06 07:59:30;;;;;;;8.90;3.53;;;;;;;37.59;33.30;94482.56;10448066;28;20021;-76
2021/07/06 08:04:31;;;;;;;6.35;3.40;;;;;;;38.60;31.41;94484.41;10446225;28;20025;-75
2021/07/06 08:09:31;;;;;;;6.03;3.15;;;;;;;39.10;29.84;94477.97;10445278;28;20037;-75
2021/07/06 08:14:32;;;;;;;4.37;3.10;;;;;;;38.63;30.67;94483.47;10446349;28;20028;-75
2021/07/06 08:19:33;;;;;;;4.25;2.83;;;;;;;38.43;30.73;94474.66;10445795;28;20024;-74
2021/07/06 08:24:33;;;;;;;4.95;3.00;;;;;;;39.02;31.52;94479.50;10442700;28;20017;-74
2021/07/06 08:29:34;;;;;;;10.63;3.37;;;;;;;36.24;34.04;94476.22;10445387;28;20040;-74
2021/07/06 08:34:34;;;;;;;6.65;3.15;;;;;;;37.46;32.22;94484.66;10447546;28;20048;-73
2021/07/06 08:39:34;;;;;;;3.87;3.33;;;;;;;37.03;32.71;94483.34;10446792;28;20021;-74
2021/07/06 08:44:35;;;;;;;5.77;2.57;;;;;;;38.24;32.11;94485.81;10445830;28;20104;-74
2021/07/06 08:49:39;;;;;;;7.40;3.50;;;;;;;36.81;33.78;94489.66;10446811;28;20033;-74
2021/07/06 08:54:40;;;;;;;4.75;3.22;;;;;;;36.67;33.03;94492.91;10446326;28;20527;-74
2021/07/06 08:59:41;;;;;;;3.03;2.73;;;;;;;38.61;29.22;94480.34;10422540;28;20029;-74
2021/07/06 09:04:43;;;;;;;3.13;2.47;;;;;;;39.07;30.83;94481.72;10403997;28;20032;-74
2021/07/06 09:09:44;;;;;;;4.10;3.00;;;;;;;37.54;31.62;94485.19;10404058;28;20025;-75
2021/07/06 09:14:48;;;;;;;7.55;2.92;;;;;;;39.67;30.58;94471.16;10404131;28;20100;-74
2021/07/06 09:19:52;;;;;;;4.95;3.15;;;;;;;38.57;31.10;94479.72;10437271;28;20021;-75
2021/07/06 09:24:59;;;;;;;6.35;3.80;;;;;;;35.00;34.71;94480.06;10445440;28;20032;-74
2021/07/06 09:30:14;;;;;;;11.38;3.45;;;;;;;38.40;30.85;94467.16;10445228;28;20040;-75
2021/07/06 09:35:26;;;;;;;7.63;3.43;;;;;;;35.49;33.91;94475.63;10444972;28;20045;-75
2021/07/06 09:40:35;;;;;;;5.07;3.05;;;;;;;33.07;37.72;94481.00;10444463;28;20036;-74
2021/07/06 09:45:35;;;;;;;6.40;3.33;;;;;;;30.88;40.57;94481.94;10444685;28;20051;-74
2021/07/06 09:50:36;;;;;;;7.90;3.40;;;;;;;34.58;38.12;94468.75;10405311;28;20021;-73
2021/07/06 09:55:37;;;;;;;4.25;3.00;;;;;;;37.98;31.32;94465.53;10406217;28;20021;-74
2021/07/06 10:00:38;;;;;;;4.30;3.45;;;;;;;34.26;36.44;94463.88;10410887;28;20032;-74
2021/07/06 10:05:38;;;;;;;5.70;3.37;;;;;;;32.13;38.76;94470.59;10410242;28;20037;-74
2021/07/06 10:10:39;;;;;;;16.25;3.78;;;;;;;31.24;42.86;94462.94;10410811;28;20030;-74
2021/07/06 10:15:40;;;;;;;9.80;4.07;;;;;;;35.07;36.65;94453.97;10410669;28;20025;-74
2021/07/06 10:20:41;;;;;;;4.28;3.03;;;;;;;38.05;30.44;94456.06;10409901;28;20108;-74
2021/07/06 10:25:42;;;;;;;8.52;2.83;;;;;;;37.23;30.95;94455.81;10410356;28;20484;-74
2021/07/06 10:30:45;;;;;;;5.55;2.63;;;;;;;37.40;32.15;94453.63;10409494;28;20040;-74
2021/07/06 10:35:47;;;;;;;6.65;2.80;;;;;;;38.81;28.85;94453.91;10409361;28;20104;-74
2021/07/06 10:40:48;;;;;;;3.13;2.15;;;;;;;41.13;26.02;94445.69;10415103;28;20029;-74
2021/07/06 10:45:48;;;;;;;3.70;2.27;;;;;;;43.20;24.16;94438.84;10445755;28;20025;-74
2021/07/06 10:50:49;;;;;;;9.27;2.30;;;;;;;41.17;25.87;94432.19;10411439;28;20028;-75
2021/07/06 10:56:05;;;;;;;2.60;2.20;;;;;;;37.34;29.11;94433.03;10438767;28;20325;-74
2021/07/06 11:01:05;;;;;;;6.30;2.60;;;;;;;36.34;29.40;94437.16;10449465;28;20282;-75
2021/07/06 11:06:44;;;;;;;5.70;2.60;;;;;;;35.61;32.70;94435.72;10449629;28;20029;-73
2021/07/06 11:11:45;;;;;;;6.95;2.83;;;;;;;33.95;35.41;94425.16;10449029;28;20029;-74
2021/07/06 11:17:02;;;;;;;4.80;2.67;;;;;;;33.62;37.17;94419.50;10449342;28;20051;-73
2021/07/06 11:22:14;;;;;;;5.72;4.00;;;;;;;32.16;37.51;94420.50;10448046;28;20035;-74
2021/07/06 11:27:35;;;;;;;7.15;3.85;;;;;;;32.25;39.25;94425.53;10448829;28;20029;-74
2021/07/06 11:33:03;;;;;;;5.55;2.95;;;;;;;32.07;39.87;94428.56;10449205;28;20040;-74
2021/07/06 11:38:37;;;;;;;4.22;2.95;;;;;;;32.13;36.38;94434.44;10448826;28;20076;-74
2021/07/06 11:43:39;;;;;;;10.25;2.78;;;;;;;32.13;36.67;94426.88;10423752;28;20116;-74
2021/07/06 11:48:41;;;;;;;3.13;2.60;;;;;;;32.12;38.35;94439.19;10426151;28;20400;-74
2021/07/06 11:54:01;;;;;;;5.60;3.13;;;;;;;31.58;38.35;94436.34;10435393;28;20029;-74
2021/07/06 11:59:01;;;;;;;6.15;2.97;;;;;;;31.95;38.50;94432.69;10406633;28;20037;-74
2021/07/06 12:04:01;;;;;;;5.37;2.70;;;;;;;31.84;36.79;94424.53;10405601;28;20497;-74
2021/07/06 12:09:05;;;;;;;3.83;2.90;;;;;;;31.88;36.88;94421.69;10406386;28;20099;-74
2021/07/06 12:14:06;;;;;;;4.50;2.08;;;;;;;31.89;36.96;94422.47;10405460;28;20065;-74
2021/07/06 12:19:13;;;;;;;6.90;2.70;;;;;;;31.83;38.59;94424.94;10405035;28;20109;-74
2021/07/06 12:24:18;;;;;;;4.18;2.78;;;;;;;31.47;38.47;94425.41;10405788;28;20171;-74
2021/07/06 12:29:53;;;;;;;4.88;2.35;;;;;;;31.24;38.76;94424.06;10405771;28;20025;-74
2021/07/06 12:34:58;;;;;;;5.30;2.60;;;;;;;30.71;40.68;94419.88;10404608;28;20191;-74
2021/07/06 12:40:08;;;;;;;4.38;2.63;;;;;;;30.66;42.64;94410.03;10405071;28;20394;-74
2021/07/06 12:45:11;;;;;;;4.13;2.70;;;;;;;30.76;42.16;94408.34;10418740;28;20083;-74
2021/07/06 12:50:13;;;;;;;10.88;5.50;;;;;;;30.89;40.13;94412.16;10436331;28;20039;-74
2021/07/06 12:55:17;;;;;;;5.75;2.67;;;;;;;30.98;39.46;94406.13;10413302;28;20489;-74
2021/07/06 13:00:22;;;;;;;5.47;2.67;;;;;;;31.17;39.94;94407.50;10403824;28;20036;-74
2021/07/06 13:05:45;;;;;;;4.22;3.38;;;;;;;31.10;38.25;94402.03;10445198;28;20037;-75
2021/07/06 13:10:48;;;;;;;5.05;2.67;;;;;;;30.73;37.88;94409.94;10445149;28;20037;-78
2021/07/06 13:15:50;;;;;;;5.43;3.67;;;;;;;30.84;39.90;94410.63;10445212;28;20033;-79
2021/07/06 13:20:50;;;;;;;3.40;2.67;;;;;;;31.00;38.27;94412.03;10443323;28;20515;-79
2021/07/06 13:25:51;;;;;;;2.73;2.33;;;;;;;31.08;39.81;94413.56;10428799;28;20041;-79
2021/07/06 13:30:53;;;;;;;2.50;2.30;;;;;;;30.67;39.70;94403.25;10423331;28;20735;-78
2021/07/06 13:35:56;;;;;;;3.75;3.25;;;;;;;30.58;41.55;94414.06;10425871;28;20061;-79
2021/07/06 13:40:58;;;;;;;6.50;3.38;;;;;;;30.69;39.77;94406.44;10428034;28;20036;-78
2021/07/06 13:46:02;;;;;;;4.13;2.85;;;;;;;30.98;39.70;94414.47;10426420;28;20032;-79
2021/07/06 13:51:03;;;;;;;4.35;3.00;;;;;;;31.19;39.58;94411.44;10425659;28;20123;-74
2021/07/06 13:56:04;;;;;;;6.03;2.95;;;;;;;31.05;39.57;94414.41;10422818;28;20467;-75
2021/07/06 14:01:08;;;;;;;5.28;3.15;;;;;;;30.81;40.45;94417.00;10412854;28;20064;-75
2021/07/06 14:06:08;;;;;;;3.95;2.90;;;;;;;30.63;40.91;94406.09;10407675;28;20036;-75
2021/07/06 14:11:08;;;;;;;3.22;2.65;;;;;;;30.60;40.78;94411.66;10443453;28;20025;-75
2021/07/06 14:16:09;;;;;;;4.67;3.33;;;;;;;30.30;41.53;94415.88;10447911;28;20029;-75
2021/07/06 14:21:10;;;;;;;4.75;3.28;;;;;;;29.84;41.39;94409.47;10448516;28;20039;-75
2021/07/06 14:26:10;;;;;;;5.20;3.05;;;;;;;29.78;41.63;94411.06;10447243;28;20028;-75
2021/07/06 14:31:10;;;;;;;4.13;2.77;;;;;;;29.54;41.44;94416.34;10445388;28;20025;-75
2021/07/06 14:36:11;;;;;;;3.03;2.73;;;;;;;29.24;43.46;94419.66;10446189;28;20049;-75
2021/07/06 14:41:13;;;;;;;7.97;2.95;;;;;;;29.11;43.11;94420.06;10445598;28;20131;-75
2021/07/06 14:46:15;;;;;;;3.35;2.55;;;;;;;28.99;43.10;94423.25;10443445;28;20028;-75
2021/07/06 14:51:15;;;;;;;5.03;2.97;;;;;;;29.02;43.40;94419.69;10439662;28;20760;-75
2021/07/06 14:56:16;;;;;;;3.70;3.00;;;;;;;29.03;45.00;94420.50;10435424;28;20029;-75
2021/07/06 15:01:16;;;;;;;3.93;3.30;;;;;;;28.93;45.00;94414.59;10444781;28;20281;-75
2021/07/06 15:06:17;;;;;;;4.83;3.50;;;;;;;28.62;46.01;94425.31;10446625;28;20068;-75
2021/07/06 15:11:17;;;;;;;5.18;3.35;;;;;;;28.39;46.43;94419.41;10445048;28;20025;-75
2021/07/06 15:16:18;;;;;;;6.47;3.10;;;;;;;28.19;45.83;94421.75;10442293;28;20017;-75
2021/07/06 15:21:19;;;;;;;5.65;4.18;;;;;;;28.11;48.32;94429.25;10444124;28;20537;-75
2021/07/06 15:26:19;;;;;;;5.27;3.57;;;;;;;28.09;44.28;94431.63;10444695;28;20082;-75
2021/07/06 15:31:20;;;;;;;3.90;2.80;;;;;;;28.11;43.53;94420.97;10444651;28;20338;-75
2021/07/06 15:36:20;;;;;;;6.07;3.00;;;;;;;28.08;44.52;94435.59;10460184;28;20049;-76
2021/07/06 15:41:21;;;;;;;4.10;2.90;;;;;;;28.24;44.07;94429.66;10444191;28;20025;-76
2021/07/06 15:46:21;;;;;;;5.03;2.90;;;;;;;28.33;43.89;94430.06;10442800;28;20516;-76
2021/07/06 15:51:22;;;;;;;3.67;2.87;;;;;;;28.40;42.98;94427.28;10438509;28;20064;-76
2021/07/06 15:56:23;;;;;;;3.60;3.07;;;;;;;28.47;43.51;94421.75;10439301;28;20963;-76
2021/07/06 16:01:23;;;;;;;3.40;2.55;;;;;;;28.44;42.83;94421.78;10446828;28;20747;-75
2021/07/06 16:06:25;;;;;;;5.20;3.00;;;;;;;28.41;41.55;94434.41;10444563;28;20029;-75
2021/07/06 16:11:25;;;;;;;3.60;3.00;;;;;;;28.35;41.75;94432.44;10440132;28;20686;-75
2021/07/06 16:16:26;;;;;;;5.00;3.00;;;;;;;28.14;43.73;94437.53;10442552;28;20017;-75
2021/07/06 16:21:26;;;;;;;5.37;3.30;;;;;;;28.10;46.41;94452.53;10443520;28;20079;-76
2021/07/06 16:26:34;;;;;;;3.72;2.80;;;;;;;27.87;46.31;94442.63;10605702;27;20378;-75
2021/07/06 16:31:34;;;;;;;6.40;2.90;;;;;;;27.75;46.54;94456.78;10584101;27;20399;-74
2021/07/06 16:36:34;;;;;;;6.20;2.93;;;;;;;27.84;48.33;94456.41;10528479;28;20024;-74
2021/07/06 16:41:36;;;;;;;5.80;3.33;;;;;;;27.92;48.37;94458.00;10564487;27;20410;-74
2021/07/06 16:46:36;;;;;;;10.07;3.30;;;;;;;27.94;46.90;94469.47;10604093;28;20034;-75
2021/07/06 17:56:05;;;;;;;;;;;;;;;;;;;;;
2021/07/06 18:01:05;;;;;;;12.55;7.15;;;;;;;26.77;50.15;94527.25;10337056;28;20059;-75
2021/07/06 18:06:07;;;;;;;6.20;3.53;;;;;;;26.67;50.69;94531.47;10456571;28;20088;-76
2021/07/06 18:11:11;;;;;;;5.70;4.03;;;;;;;26.52;54.54;94538.06;10520015;28;20024;-76
2021/07/06 18:16:12;;;;;;;12.95;4.13;;;;;;;26.35;55.63;94540.25;10518734;28;20020;-76
2021/07/06 18:21:12;;;;;;;8.68;5.13;;;;;;;26.38;56.89;94545.00;10558530;27;20042;-76
2021/07/06 18:26:12;;;;;;;5.73;4.63;;;;;;;26.38;59.26;94547.75;10531479;28;20159;-76
2021/07/06 18:31:13;;;;;;;9.23;4.47;;;;;;;26.32;58.62;94557.56;10507954;28;20047;-75
2021/07/06 18:36:13;;;;;;;8.13;4.10;;;;;;;26.15;62.42;94566.41;10510555;28;20487;-75
2021/07/06 18:41:19;;;;;;;7.07;4.60;;;;;;;26.04;62.39;94569.88;10512345;28;20043;-75
2021/07/06 18:46:19;;;;;;;12.38;3.55;;;;;;;25.81;60.94;94580.97;10512294;28;20020;-75
2021/07/06 18:51:20;;;;;;;7.97;4.57;;;;;;;25.78;64.30;94580.94;10510051;28;20024;-75
2021/07/06 18:56:21;;;;;;;8.77;4.72;;;;;;;25.72;68.60;94589.53;10518789;28;20527;-75
2021/07/06 19:01:22;;;;;;;8.90;4.53;;;;;;;25.59;70.00;94593.66;10520212;28;20111;-75
2021/07/06 19:06:22;;;;;;;9.52;4.03;;;;;;;25.28;72.27;94590.06;10510398;28;20077;-75
2021/07/06 19:11:22;;;;;;;7.03;4.50;;;;;;;25.03;74.95;94596.03;10508855;28;20032;-75
2021/07/06 19:16:23;;;;;;;11.03;5.17;;;;;;;24.94;83.19;94609.22;10507748;28;20270;-75
2021/07/06 19:21:33;;;;;;;18.58;5.35;;;;;;;24.72;82.75;94617.09;10513088;28;20024;-75
2021/07/06 19:26:44;;;;;;;8.00;4.22;;;;;;;24.48;74.63;94623.75;10520658;28;20040;-75
2021/07/06 19:31:44;;;;;;;9.85;4.85;;;;;;;24.25;72.25;94625.66;10507410;28;20423;-75
2021/07/06 19:36:45;;;;;;;8.25;4.50;;;;;;;24.04;74.07;94626.84;10498961;28;20032;-75
2021/07/06 19:41:45;;;;;;;7.87;4.30;;;;;;;23.89;79.30;94625.78;10506992;28;20028;-75
2021/07/06 19:46:46;;;;;;;9.40;4.00;;;;;;;23.74;82.58;94632.09;10527040;28;20278;-75
2021/07/06 19:51:46;;;;;;;5.15;3.97;;;;;;;23.69;90.47;94628.47;10526575;28;20300;-75
2021/07/06 19:56:47;;;;;;;8.93;5.57;;;;;;;23.65;93.96;94632.28;10541465;28;20032;-75
2021/07/06 20:01:47;;;;;;;5.87;4.27;;;;;;;23.49;93.86;94626.88;10503451;28;20043;-75
2021/07/06 20:06:48;;;;;;;11.93;4.80;;;;;;;23.44;91.71;94627.13;10525246;28;20031;-75
2021/07/06 20:11:48;;;;;;;8.18;4.90;;;;;;;23.21;91.85;94625.84;10530917;28;20887;-75
2021/07/06 20:16:50;;;;;;;4.80;4.30;;;;;;;22.84;90.25;94630.81;10560086;28;20081;-75
2021/07/06 20:21:51;;;;;;;9.82;4.72;;;;;;;22.68;92.71;94636.31;10547681;28;20052;-75
2021/07/06 20:26:51;;;;;;;7.47;4.13;;;;;;;22.49;95.11;94621.38;10547200;28;20754;-75
2021/07/06 20:31:52;;;;;;;8.07;4.40;;;;;;;22.39;95.83;94619.16;10544115;28;20392;-75
2021/07/06 20:36:52;;;;;;;8.07;5.50;;;;;;;22.45;98.61;94620.50;10541699;28;20809;-75
2021/07/06 20:41:53;;;;;;;6.23;4.30;;;;;;;22.31;99.96;94631.03;10549043;28;20024;-75
2021/07/06 20:46:53;;;;;;;8.63;4.15;;;;;;;22.31;96.75;94639.25;10545489;28;20474;-75
2021/07/06 20:51:53;;;;;;;9.35;4.50;;;;;;;22.12;100.00;94629.75;10557324;28;20508;-75
2021/07/06 20:56:54;;;;;;;8.57;4.63;;;;;;;22.15;100.00;94640.00;10528674;28;20082;-75
2021/07/06 21:01:54;;;;;;;8.93;4.63;;;;;;;22.23;100.00;94641.00;10525369;28;20277;-75
2021/07/06 21:06:55;;;;;;;5.27;4.00;;;;;;;22.23;100.00;94641.00;10508965;28;20283;-75
2021/07/06 21:11:55;;;;;;;9.10;5.00;;;;;;;22.13;100.00;94650.53;10550024;28;20030;-75
2021/07/06 21:16:55;;;;;;;7.33;4.47;;;;;;;22.17;100.00;94645.13;10559320;28;20024;-75
2021/07/06 21:21:56;;;;;;;8.33;4.73;;;;;;;21.94;100.00;94653.91;10566251;28;20857;-76
2021/07/06 21:26:57;;;;;;;7.13;4.60;;;;;;;21.87;100.00;94653.69;10551493;28;20024;-76
2021/07/06 21:31:57;;;;;;;8.83;4.10;;;;;;;21.75;100.00;94651.00;10565065;28;20034;-75
2021/07/06 21:36:57;;;;;;;8.67;4.40;;;;;;;21.74;100.00;94660.34;10532197;28;20082;-76
2021/07/06 21:41:58;;;;;;;5.20;4.10;;;;;;;21.54;100.00;94662.09;10533169;28;20039;-75
2021/07/06 21:46:58;;;;;;;6.70;4.73;;;;;;;21.39;100.00;94658.09;10552654;28;20032;-76
2021/07/06 21:52:00;;;;;;;8.80;4.93;;;;;;;21.23;100.00;94650.63;10532617;28;20282;-75
2021/07/06 21:57:00;;;;;;;8.93;4.45;;;;;;;21.28;100.00;94644.91;10532413;28;20031;-76
2021/07/06 22:02:01;;;;;;;5.70;4.30;;;;;;;21.30;100.00;94647.31;10539063;28;20027;-76
2021/07/06 22:07:03;;;;;;;8.60;4.40;;;;;;;21.30;100.00;94653.56;10557094;27;20304;-76
2021/07/06 22:12:04;;;;;;;7.25;4.70;;;;;;;21.29;100.00;94649.25;10612836;27;20033;-76
2021/07/06 22:17:04;;;;;;;7.05;4.57;;;;;;;21.18;100.00;94659.03;10614329;27;20061;-76
2021/07/06 22:22:05;;;;;;;8.07;4.83;;;;;;;21.27;100.00;94659.72;10594727;27;20069;-75
2021/07/06 22:27:05;;;;;;;8.95;5.22;;;;;;;21.27;100.00;94659.72;10613874;27;20397;-75
2021/07/06 22:32:06;;;;;;;6.75;4.93;;;;;;;21.15;100.00;94657.00;10586050;27;20028;-75
2021/07/06 22:37:07;;;;;;;6.50;4.75;;;;;;;21.16;100.00;94653.13;10570978;28;20020;-75
2021/07/06 22:42:08;;;;;;;6.43;5.07;;;;;;;20.92;100.00;94657.47;10597287;27;20030;-76
2021/07/06 22:47:08;;;;;;;7.13;5.18;;;;;;;20.94;100.00;94670.78;10570180;28;20031;-75
2021/07/06 22:52:08;;;;;;;7.25;5.18;;;;;;;20.74;100.00;94659.59;10570582;28;20015;-76
2021/07/06 22:57:09;;;;;;;9.40;5.13;;;;;;;20.74;100.00;94656.09;10569471;28;20031;-75
2021/07/06 23:02:09;;;;;;;7.30;4.93;;;;;;;20.70;100.00;94652.44;10563944;27;20065;-75
2021/07/06 23:07:09;;;;;;;6.13;5.03;;;;;;;20.56;100.00;94652.72;10592641;27;20042;-75
2021/07/06 23:12:10;;;;;;;11.70;5.73;;;;;;;20.46;100.00;94653.97;10579511;27;20277;-76
2021/07/06 23:17:10;;;;;;;9.15;6.03;;;;;;;20.33;100.00;94655.84;10582184;27;20100;-75
2021/07/06 23:22:11;;;;;;;7.10;5.80;;;;;;;20.34;100.00;94662.91;10583861;27;20502;-76
2021/07/06 23:27:11;;;;;;;9.70;5.30;;;;;;;20.36;100.00;94670.75;10587257;27;20038;-75
2021/07/06 23:32:11;;;;;;;8.37;5.83;;;;;;;20.31;100.00;94669.03;10567123;28;20076;-75
2021/07/06 23:37:12;;;;;;;7.03;5.70;;;;;;;20.19;100.00;94658.91;10566794;28;20490;-75
2021/07/06 23:42:13;;;;;;;8.90;5.93;;;;;;;19.99;100.00;94660.53;10579167;27;20041;-76
2021/07/06 23:47:13;;;;;;;9.07;6.05;;;;;;;20.01;100.00;94671.09;10548225;28;20498;-75
2021/07/06 23:52:13;;;;;;;10.50;5.33;;;;;;;19.84;100.00;94667.38;10567232;28;20020;-76
2021/07/06 23:57:14;;;;;;;8.73;5.72;;;;;;;19.84;100.00;94664.66;10565963;28;20031;-75
